Time;durP1;ratioP1;P1;durP2;ratioP2;P2;SDS_P1;SDS_P2;PMS_P1;PMS_P2;Temp;Humidity;BMP_temperature;BMP_pressure;BME280_temperature;BME280_humidity;BME280_pressure;Samples;Min_cycle;Max_cycle;Signal;HPM_P1;HPM_P2
2024/02/06 00:02:14;;;;;;;8.50;3.00;;;;;;;;;;4968354;28;20050;-67
2024/02/06 00:04:40;;;;;;;8.35;3.00;;;;;;;;;;4969259;28;20067;-64
2024/02/06 00:07:08;;;;;;;8.55;3.25;;;;;;;;;;4966370;28;20035;-64
2024/02/06 00:09:34;;;;;;;8.73;2.80;;;;;;;;;;4969469;28;20041;-65
2024/02/06 00:12:00;;;;;;;8.10;2.72;;;;;;;;;;4966763;28;20038;-64
2024/02/06 00:14:26;;;;;;;7.10;3.00;;;;;;;;;;4965878;28;20053;-65
2024/02/06 00:16:52;;;;;;;9.88;3.40;;;;;;;;;;4967917;28;20047;-63
2024/02/06 00:19:18;;;;;;;8.63;4.57;;;;;;;;;;4966727;28;20133;-63
2024/02/06 00:21:44;;;;;;;10.57;4.20;;;;;;;;;;4968458;28;20035;-64
2024/02/06 00:24:11;;;;;;;9.95;3.50;;;;;;;;;;4969071;28;20035;-64
2024/02/06 00:26:37;;;;;;;6.35;3.03;;;;;;;;;;4967327;28;20488;-64
2024/02/06 00:29:03;;;;;;;6.95;3.17;;;;;;;;;;4966566;28;20049;-65
2024/02/06 00:31:29;;;;;;;5.82;2.65;;;;;;;;;;4952811;28;20046;-63
2024/02/06 00:33:55;;;;;;;6.97;2.63;;;;;;;;;;4969639;28;20695;-64
2024/02/06 00:36:21;;;;;;;15.52;4.13;;;;;;;;;;4965237;28;20513;-64
2024/02/06 00:38:48;;;;;;;10.40;3.03;;;;;;;;;;4968182;28;20043;-64
2024/02/06 00:41:14;;;;;;;10.52;3.15;;;;;;;;;;4964968;28;20066;-64
2024/02/06 00:43:40;;;;;;;9.88;3.45;;;;;;;;;;4966350;28;20054;-64
2024/02/06 00:46:06;;;;;;;15.93;4.43;;;;;;;;;;4967231;28;20062;-64
2024/02/06 00:48:33;;;;;;;29.38;7.03;;;;;;;;;;4967927;28;20050;-64
2024/02/06 00:50:59;;;;;;;21.35;6.03;;;;;;;;;;4968692;28;20043;-64
2024/02/06 00:53:25;;;;;;;20.40;6.60;;;;;;;;;;4965036;28;20043;-64
2024/02/06 00:55:51;;;;;;;36.75;9.25;;;;;;;;;;4967649;28;20045;-64
2024/02/06 00:58:17;;;;;;;27.88;7.80;;;;;;;;;;4969215;28;20061;-64
2024/02/06 01:00:43;;;;;;;18.05;6.28;;;;;;;;;;4967649;28;20256;-64
2024/02/06 01:03:09;;;;;;;22.17;6.88;;;;;;;;;;4950916;28;20054;-64
2024/02/06 01:05:35;;;;;;;17.67;5.70;;;;;;;;;;4969177;28;20418;-64
2024/02/06 01:08:02;;;;;;;17.70;6.00;;;;;;;;;;4967725;28;20062;-64
2024/02/06 01:10:28;;;;;;;14.50;6.00;;;;;;;;;;4963787;28;20043;-64
2024/02/06 01:12:54;;;;;;;16.08;6.78;;;;;;;;;;4969480;28;20039;-64
2024/02/06 01:15:20;;;;;;;14.77;5.70;;;;;;;;;;4972893;28;20058;-64
2024/02/06 01:17:46;;;;;;;17.52;7.80;;;;;;;;;;4972716;28;20386;-64
2024/02/06 01:20:13;;;;;;;14.45;7.25;;;;;;;;;;4971991;28;20043;-63
2024/02/06 01:22:39;;;;;;;14.38;6.60;;;;;;;;;;4972619;28;20039;-64
2024/02/06 01:25:05;;;;;;;15.23;7.22;;;;;;;;;;4970618;28;20039;-64
2024/02/06 01:27:31;;;;;;;17.65;8.18;;;;;;;;;;4970727;28;20051;-64
2024/02/06 01:29:57;;;;;;;16.95;7.50;;;;;;;;;;4967897;28;20046;-64
2024/02/06 01:32:23;;;;;;;17.15;8.23;;;;;;;;;;4967376;28;20050;-64
2024/02/06 01:34:49;;;;;;;15.05;8.00;;;;;;;;;;4972966;28;20059;-63
2024/02/06 01:37:15;;;;;;;14.95;8.63;;;;;;;;;;4971221;28;20058;-64
2024/02/06 01:39:42;;;;;;;15.38;8.95;;;;;;;;;;4972850;28;20391;-64
2024/02/06 01:42:08;;;;;;;17.63;9.27;;;;;;;;;;4970786;28;20038;-64
2024/02/06 01:44:34;;;;;;;16.55;8.40;;;;;;;;;;4972804;28;20046;-65
2024/02/06 01:47:00;;;;;;;15.15;8.32;;;;;;;;;;4973299;28;20363;-64
2024/02/06 01:49:26;;;;;;;15.40;8.20;;;;;;;;;;4972258;28;20046;-65
2024/02/06 01:51:53;;;;;;;15.00;7.80;;;;;;;;;;4968048;28;20051;-65
2024/02/06 01:54:20;;;;;;;16.60;8.43;;;;;;;;;;4972511;28;20050;-64
2024/02/06 01:56:47;;;;;;;14.15;7.80;;;;;;;;;;4971466;28;20039;-64
2024/02/06 01:59:14;;;;;;;14.48;7.97;;;;;;;;;;4967066;28;20046;-65
2024/02/06 02:01:41;;;;;;;12.60;7.47;;;;;;;;;;4970727;28;20042;-65
2024/02/06 02:04:09;;;;;;;19.48;8.25;;;;;;;;;;4969998;28;20046;-65
2024/02/06 02:06:35;;;;;;;18.27;8.38;;;;;;;;;;4971204;28;20037;-65
2024/02/06 02:09:02;;;;;;;15.85;7.03;;;;;;;;;;4971457;28;20031;-64
2024/02/06 02:11:28;;;;;;;19.25;8.15;;;;;;;;;;4971345;28;20399;-64
2024/02/06 02:13:54;;;;;;;16.38;7.90;;;;;;;;;;4971795;28;20055;-64
2024/02/06 02:16:22;;;;;;;14.00;8.13;;;;;;;;;;4969489;28;20050;-67
2024/02/06 02:18:48;;;;;;;15.02;8.23;;;;;;;;;;4970608;28;20046;-65
2024/02/06 02:21:15;;;;;;;17.23;8.30;;;;;;;;;;4969511;28;20058;-66
2024/02/06 02:23:44;;;;;;;14.23;8.35;;;;;;;;;;4970051;28;20402;-65
2024/02/06 02:26:13;;;;;;;13.18;7.75;;;;;;;;;;4969101;28;20533;-66
2024/02/06 02:28:41;;;;;;;17.95;10.07;;;;;;;;;;4970102;28;20043;-66
2024/02/06 02:31:10;;;;;;;24.67;11.25;;;;;;;;;;4964304;28;20089;-64
2024/02/06 02:33:37;;;;;;;24.27;10.53;;;;;;;;;;4970732;28;20038;-62
2024/02/06 02:36:06;;;;;;;22.52;11.07;;;;;;;;;;4968845;28;20293;-64
2024/02/06 02:38:33;;;;;;;;;;;;;;;;;;4970372;28;20054;-64
2024/02/06 02:41:00;;;;;;;25.77;12.02;;;;;;;;;;4967885;28;19921;-64
2024/02/06 02:43:26;;;;;;;25.63;10.95;;;;;;;;;;4970134;28;20053;-64
2024/02/06 02:45:52;;;;;;;18.52;8.55;;;;;;;;;;4970219;28;20035;-68
2024/02/06 02:48:18;;;;;;;27.88;13.52;;;;;;;;;;4970340;28;20050;-69
2024/02/06 02:50:44;;;;;;;21.05;9.93;;;;;;;;;;4968553;28;20046;-66
2024/02/06 02:53:10;;;;;;;18.10;9.57;;;;;;;;;;4971539;28;20039;-65
2024/02/06 02:55:36;;;;;;;19.55;8.50;;;;;;;;;;4970661;28;20046;-64
2024/02/06 02:58:03;;;;;;;16.90;9.00;;;;;;;;;;4969999;28;20031;-64
2024/02/06 03:00:29;;;;;;;14.73;7.80;;;;;;;;;;4966952;28;20068;-64
2024/02/06 03:02:55;;;;;;;19.38;8.18;;;;;;;;;;4968227;28;20141;-63
2024/02/06 03:05:21;;;;;;;23.20;8.45;;;;;;;;;;4969776;28;20054;-64
2024/02/06 03:07:49;;;;;;;18.85;9.50;;;;;;;;;;4971743;28;20113;-64
2024/02/06 03:10:15;;;;;;;15.38;7.78;;;;;;;;;;4968746;28;20039;-65
2024/02/06 03:12:41;;;;;;;19.15;8.73;;;;;;;;;;4970233;28;20055;-64
2024/02/06 03:15:08;;;;;;;15.23;7.63;;;;;;;;;;4970701;28;20238;-64
2024/02/06 03:17:34;;;;;;;13.90;8.23;;;;;;;;;;4968772;28;20082;-64
2024/02/06 03:20:01;;;;;;;16.77;8.68;;;;;;;;;;4971405;28;20042;-62
2024/02/06 03:22:34;;;;;;;16.23;9.20;;;;;;;;;;4971193;28;20043;-65
2024/02/06 03:25:00;;;;;;;19.02;9.27;;;;;;;;;;4969910;28;20058;-64
2024/02/06 03:27:26;;;;;;;20.60;9.77;;;;;;;;;;4969258;28;20047;-65
2024/02/06 03:29:53;;;;;;;23.85;10.90;;;;;;;;;;4967054;28;20491;-65
2024/02/06 03:32:19;;;;;;;21.73;10.43;;;;;;;;;;4968986;28;20038;-66
2024/02/06 03:34:45;;;;;;;23.45;11.85;;;;;;;;;;4968885;28;20042;-65
2024/02/06 03:37:13;;;;;;;26.08;10.40;;;;;;;;;;4970597;28;20058;-66
2024/02/06 03:39:39;;;;;;;16.67;10.07;;;;;;;;;;4969452;28;20038;-65
2024/02/06 03:42:05;;;;;;;20.92;10.95;;;;;;;;;;4969280;28;20046;-65
2024/02/06 03:44:31;;;;;;;23.00;10.90;;;;;;;;;;4971035;28;20034;-65
2024/02/06 03:46:57;;;;;;;22.98;10.80;;;;;;;;;;4966060;28;20031;-64
2024/02/06 03:49:23;;;;;;;20.80;11.23;;;;;;;;;;4971162;28;20042;-64
2024/02/06 03:51:49;;;;;;;25.83;11.70;;;;;;;;;;4967577;28;20062;-64
2024/02/06 03:54:16;;;;;;;22.17;11.57;;;;;;;;;;4968214;28;20157;-64
2024/02/06 03:56:42;;;;;;;24.63;11.82;;;;;;;;;;4963971;28;20032;-64
2024/02/06 03:59:08;;;;;;;23.55;13.63;;;;;;;;;;4969366;28;20042;-65
2024/02/06 04:01:35;;;;;;;25.48;11.98;;;;;;;;;;4964773;28;20046;-64
2024/02/06 04:04:01;;;;;;;26.20;12.13;;;;;;;;;;4969869;28;20070;-65
2024/02/06 04:06:27;;;;;;;26.98;11.40;;;;;;;;;;4967680;28;20046;-65
2024/02/06 04:08:53;;;;;;;20.67;11.85;;;;;;;;;;4967124;28;20051;-67
2024/02/06 04:11:20;;;;;;;24.63;11.25;;;;;;;;;;4967023;28;20490;-64
2024/02/06 04:13:46;;;;;;;23.10;11.60;;;;;;;;;;4969971;28;20053;-66
2024/02/06 04:16:12;;;;;;;21.83;12.02;;;;;;;;;;4963317;28;20033;-64
2024/02/06 04:18:38;;;;;;;28.30;12.27;;;;;;;;;;4963932;28;20047;-64
2024/02/06 04:21:05;;;;;;;23.27;12.05;;;;;;;;;;4967249;28;20030;-63
2024/02/06 04:23:31;;;;;;;21.13;11.48;;;;;;;;;;4965139;28;20411;-64
2024/02/06 04:25:57;;;;;;;21.38;11.10;;;;;;;;;;4969063;28;20050;-64
2024/02/06 04:28:23;;;;;;;26.38;11.52;;;;;;;;;;4969000;28;20046;-63
2024/02/06 04:30:55;;;;;;;24.80;11.52;;;;;;;;;;4968305;28;20114;-64
2024/02/06 04:33:21;;;;;;;24.65;11.43;;;;;;;;;;4946913;28;20054;-64
2024/02/06 04:35:47;;;;;;;26.15;12.27;;;;;;;;;;4967965;28;20055;-65
2024/02/06 04:38:14;;;;;;;22.02;10.95;;;;;;;;;;4966906;28;20055;-64
2024/02/06 04:40:40;;;;;;;22.85;11.23;;;;;;;;;;4967295;28;20043;-64
2024/02/06 04:43:06;;;;;;;27.05;14.07;;;;;;;;;;4970502;28;20045;-65
2024/02/06 04:45:33;;;;;;;31.27;12.90;;;;;;;;;;4966446;28;20081;-67
2024/02/06 04:47:59;;;;;;;21.73;11.27;;;;;;;;;;4966477;28;20039;-64
2024/02/06 04:50:25;;;;;;;26.02;12.18;;;;;;;;;;4964135;28;20039;-67
2024/02/06 04:52:52;;;;;;;23.23;11.95;;;;;;;;;;4965166;28;20121;-64
2024/02/06 04:55:18;;;;;;;26.25;12.43;;;;;;;;;;4963606;28;20046;-64
2024/02/06 04:57:45;;;;;;;22.70;11.82;;;;;;;;;;4967193;28;20045;-65
2024/02/06 05:00:14;;;;;;;24.67;11.50;;;;;;;;;;4969338;28;20050;-65
2024/02/06 05:02:41;;;;;;;25.08;11.43;;;;;;;;;;4967297;28;20145;-68
2024/02/06 05:05:07;;;;;;;24.67;10.55;;;;;;;;;;4966652;28;20138;-65
2024/02/06 05:07:33;;;;;;;24.30;11.30;;;;;;;;;;4966356;28;20038;-68
2024/02/06 05:09:59;;;;;;;27.50;11.48;;;;;;;;;;4968844;28;20027;-64
2024/02/06 05:12:26;;;;;;;23.02;11.73;;;;;;;;;;4967336;28;20039;-64
2024/02/06 05:14:52;;;;;;;26.58;11.48;;;;;;;;;;4966796;28;20039;-64
2024/02/06 05:17:19;;;;;;;24.30;11.07;;;;;;;;;;4965758;28;20375;-65
2024/02/06 05:19:45;;;;;;;22.63;10.45;;;;;;;;;;4969333;28;20418;-64
2024/02/06 05:22:11;;;;;;;22.70;10.50;;;;;;;;;;4966338;28;20039;-66
2024/02/06 05:24:37;;;;;;;25.50;10.90;;;;;;;;;;4968999;28;20402;-64
2024/02/06 05:27:03;;;;;;;24.77;10.90;;;;;;;;;;4961479;28;20031;-65
2024/02/06 05:29:30;;;;;;;31.33;13.95;;;;;;;;;;4970308;28;20043;-64
2024/02/06 05:31:57;;;;;;;22.50;11.25;;;;;;;;;;4967062;28;20042;-65
2024/02/06 05:34:23;;;;;;;21.35;11.00;;;;;;;;;;4964898;28;20055;-64
2024/02/06 05:36:49;;;;;;;25.40;11.35;;;;;;;;;;4969890;28;20038;-64
2024/02/06 05:39:16;;;;;;;23.48;10.82;;;;;;;;;;4967118;28;20057;-66
2024/02/06 05:41:42;;;;;;;25.67;11.38;;;;;;;;;;4968619;28;20035;-64
2024/02/06 05:44:08;;;;;;;25.65;10.95;;;;;;;;;;4967948;28;20042;-65
2024/02/06 05:46:34;;;;;;;27.23;12.40;;;;;;;;;;4970168;28;20035;-65
2024/02/06 05:49:00;;;;;;;32.45;12.98;;;;;;;;;;4966261;28;20109;-66
2024/02/06 05:51:27;;;;;;;30.67;11.32;;;;;;;;;;4964746;28;20410;-64
2024/02/06 05:53:53;;;;;;;26.98;10.95;;;;;;;;;;4966326;28;20526;-62
2024/02/06 05:56:19;;;;;;;21.77;10.95;;;;;;;;;;4966893;28;20051;-62
2024/02/06 05:58:45;;;;;;;23.48;10.48;;;;;;;;;;4968764;28;20049;-64
2024/02/06 06:01:12;;;;;;;22.13;10.73;;;;;;;;;;4968650;28;20161;-65
2024/02/06 06:03:38;;;;;;;23.05;11.55;;;;;;;;;;4953122;28;20038;-68
2024/02/06 06:06:04;;;;;;;24.77;10.80;;;;;;;;;;4973739;28;20031;-67
2024/02/06 06:08:30;;;;;;;23.98;10.55;;;;;;;;;;4970529;28;20150;-64
2024/02/06 06:10:57;;;;;;;24.98;12.02;;;;;;;;;;4969804;28;20065;-65
2024/02/06 06:13:26;;;;;;;21.73;10.48;;;;;;;;;;4970262;28;20054;-64
2024/02/06 06:15:52;;;;;;;30.05;11.10;;;;;;;;;;4973027;28;20482;-65
2024/02/06 06:18:18;;;;;;;22.38;9.88;;;;;;;;;;4971954;28;20130;-65
2024/02/06 06:20:44;;;;;;;25.13;10.07;;;;;;;;;;4971449;28;20053;-64
2024/02/06 06:23:10;;;;;;;23.15;9.88;;;;;;;;;;4968635;28;20447;-65
2024/02/06 06:25:36;;;;;;;20.23;9.77;;;;;;;;;;4970604;28;20038;-65
2024/02/06 06:28:04;;;;;;;21.15;9.60;;;;;;;;;;4972475;28;20178;-65
2024/02/06 06:30:30;;;;;;;18.40;8.52;;;;;;;;;;4972078;28;20034;-64
2024/02/06 06:32:57;;;;;;;20.90;8.82;;;;;;;;;;4971210;28;20383;-65
2024/02/06 06:35:23;;;;;;;18.40;7.97;;;;;;;;;;4972537;28;20059;-64
2024/02/06 06:37:49;;;;;;;18.40;8.70;;;;;;;;;;4971059;28;20486;-64
2024/02/06 06:40:15;;;;;;;15.15;7.45;;;;;;;;;;4968658;28;20050;-66
2024/02/06 06:42:41;;;;;;;15.88;7.35;;;;;;;;;;4972350;28;20116;-64
2024/02/06 06:45:08;;;;;;;18.58;7.13;;;;;;;;;;4971116;28;20030;-64
2024/02/06 06:47:34;;;;;;;18.38;6.82;;;;;;;;;;4970992;28;20050;-64
2024/02/06 06:50:00;;;;;;;13.43;6.90;;;;;;;;;;4964953;28;20067;-64
2024/02/06 06:52:27;;;;;;;17.60;7.15;;;;;;;;;;4971741;28;20390;-66
2024/02/06 06:54:53;;;;;;;15.75;6.85;;;;;;;;;;4972215;28;20039;-65
2024/02/06 06:57:20;;;;;;;15.82;6.78;;;;;;;;;;4970675;28;20410;-65
2024/02/06 06:59:46;;;;;;;16.88;7.72;;;;;;;;;;4970995;28;20130;-64
2024/02/06 07:02:12;;;;;;;13.65;7.28;;;;;;;;;;4970404;28;20061;-65
2024/02/06 07:04:38;;;;;;;14.38;7.00;;;;;;;;;;4970157;28;20418;-65
2024/02/06 07:07:04;;;;;;;15.18;6.38;;;;;;;;;;4969631;28;20447;-65
2024/02/06 07:09:30;;;;;;;17.38;7.28;;;;;;;;;;4968569;28;20073;-64
2024/02/06 07:11:57;;;;;;;15.75;7.10;;;;;;;;;;4966903;28;20058;-65
2024/02/06 07:14:23;;;;;;;14.30;6.70;;;;;;;;;;4969634;28;20046;-64
2024/02/06 07:16:49;;;;;;;19.52;7.28;;;;;;;;;;4970876;28;20048;-64
2024/02/06 07:19:15;;;;;;;11.23;5.40;;;;;;;;;;4969666;28;20145;-64
2024/02/06 07:21:53;;;;;;;11.35;6.10;;;;;;;;;;4980563;28;20050;-65
2024/02/06 07:24:19;;;;;;;18.05;6.20;;;;;;;;;;4970070;28;20526;-63
2024/02/06 07:26:45;;;;;;;14.73;5.85;;;;;;;;;;4968203;28;20027;-64
2024/02/06 07:29:11;;;;;;;12.95;5.78;;;;;;;;;;4969645;28;20042;-64
2024/02/06 07:31:37;;;;;;;16.20;6.43;;;;;;;;;;4967286;28;20059;-64
2024/02/06 07:34:05;;;;;;;18.30;6.65;;;;;;;;;;4970219;28;20047;-64
2024/02/06 07:36:31;;;;;;;18.45;6.38;;;;;;;;;;4968395;28;20042;-64
2024/02/06 07:38:57;;;;;;;13.85;6.53;;;;;;;;;;4969617;28;20031;-64
2024/02/06 07:41:23;;;;;;;15.02;6.78;;;;;;;;;;4967683;28;20070;-68
2024/02/06 07:43:49;;;;;;;15.60;6.57;;;;;;;;;;4968868;28;20042;-67
2024/02/06 07:46:17;;;;;;;14.52;6.18;;;;;;;;;;4966588;28;20035;-64
2024/02/06 07:48:43;;;;;;;20.73;7.82;;;;;;;;;;4968377;28;20395;-65
2024/02/06 07:51:11;;;;;;;21.38;8.07;;;;;;;;;;4965925;28;20038;-63
2024/02/06 07:53:37;;;;;;;16.45;6.47;;;;;;;;;;4968419;28;20047;-65
2024/02/06 07:56:06;;;;;;;19.10;7.68;;;;;;;;;;4969809;28;20047;-64
2024/02/06 07:58:32;;;;;;;15.43;7.03;;;;;;;;;;4968845;28;20035;-64
2024/02/06 08:00:58;;;;;;;18.98;7.82;;;;;;;;;;4970187;28;20027;-64
2024/02/06 08:03:24;;;;;;;17.33;7.75;;;;;;;;;;4966761;28;20057;-64
2024/02/06 08:05:51;;;;;;;15.52;7.07;;;;;;;;;;4966884;28;20462;-65
2024/02/06 08:08:17;;;;;;;17.13;7.30;;;;;;;;;;4967765;28;20069;-65
2024/02/06 08:10:43;;;;;;;14.57;7.15;;;;;;;;;;4964698;28;20042;-65
2024/02/06 08:13:09;;;;;;;18.33;7.53;;;;;;;;;;4966359;28;20054;-65
2024/02/06 08:15:35;;;;;;;16.27;7.45;;;;;;;;;;4967000;28;20042;-64
2024/02/06 08:18:01;;;;;;;16.63;6.93;;;;;;;;;;4968542;28;20054;-65
2024/02/06 08:20:27;;;;;;;16.75;7.25;;;;;;;;;;4967319;28;20045;-65
2024/02/06 08:22:53;;;;;;;22.45;7.57;;;;;;;;;;4966332;28;20038;-64
2024/02/06 08:25:21;;;;;;;16.55;6.47;;;;;;;;;;4968319;28;20049;-64
2024/02/06 08:27:48;;;;;;;18.23;6.40;;;;;;;;;;4968255;28;20039;-62
2024/02/06 08:30:15;;;;;;;12.63;6.15;;;;;;;;;;4968371;28;20046;-65
2024/02/06 08:32:41;;;;;;;17.75;6.28;;;;;;;;;;4966205;28;20042;-64
2024/02/06 08:35:07;;;;;;;15.63;6.65;;;;;;;;;;4963141;28;20053;-64
2024/02/06 08:37:33;;;;;;;11.80;5.80;;;;;;;;;;4968889;28;20054;-65
2024/02/06 08:40:00;;;;;;;19.17;6.25;;;;;;;;;;4966806;28;20122;-64
2024/02/06 08:42:26;;;;;;;17.88;5.97;;;;;;;;;;4970127;28;20050;-64
2024/02/06 08:44:52;;;;;;;13.43;5.43;;;;;;;;;;4969105;28;20049;-65
2024/02/06 08:47:18;;;;;;;11.07;5.25;;;;;;;;;;4965477;28;20046;-65
2024/02/06 08:49:44;;;;;;;10.35;5.35;;;;;;;;;;4968098;28;20058;-65
2024/02/06 08:52:10;;;;;;;11.48;5.60;;;;;;;;;;4967913;28;20046;-64
2024/02/06 08:54:36;;;;;;;12.98;5.10;;;;;;;;;;4967101;28;20062;-65
2024/02/06 08:57:02;;;;;;;10.77;4.30;;;;;;;;;;4968404;28;20402;-62
2024/02/06 08:59:28;;;;;;;10.93;4.72;;;;;;;;;;4967968;28;20039;-64
2024/02/06 09:01:55;;;;;;;9.63;4.25;;;;;;;;;;4966438;28;20057;-64
2024/02/06 09:04:21;;;;;;;9.73;4.22;;;;;;;;;;4964557;28;20399;-63
2024/02/06 09:06:47;;;;;;;7.78;3.92;;;;;;;;;;4966769;28;20475;-64
2024/02/06 09:09:14;;;;;;;13.50;4.80;;;;;;;;;;4968430;28;20042;-64
2024/02/06 09:11:40;;;;;;;11.98;4.28;;;;;;;;;;4969792;28;20031;-64
2024/02/06 09:14:06;;;;;;;8.35;3.95;;;;;;;;;;4964010;28;20034;-63
2024/02/06 09:16:32;;;;;;;10.30;4.38;;;;;;;;;;4969522;28;20077;-64
2024/02/06 09:18:58;;;;;;;9.07;3.85;;;;;;;;;;4964467;28;20054;-64
2024/02/06 09:21:25;;;;;;;10.60;4.13;;;;;;;;;;4967220;28;20042;-63
2024/02/06 09:23:51;;;;;;;8.05;3.78;;;;;;;;;;4968827;28;20031;-62
2024/02/06 09:26:18;;;;;;;7.40;4.10;;;;;;;;;;4968974;28;20062;-64
2024/02/06 09:28:44;;;;;;;8.20;3.75;;;;;;;;;;4967004;28;20030;-65
2024/02/06 09:31:11;;;;;;;12.35;4.10;;;;;;;;;;4966798;28;20564;-64
2024/02/06 09:33:37;;;;;;;11.40;5.07;;;;;;;;;;4969684;28;20054;-64
2024/02/06 09:36:05;;;;;;;9.50;3.95;;;;;;;;;;4973257;28;20043;-65
2024/02/06 09:38:31;;;;;;;7.13;3.50;;;;;;;;;;4968975;28;20027;-67
2024/02/06 09:40:59;;;;;;;10.38;3.75;;;;;;;;;;4971465;28;20038;-64
2024/02/06 09:43:25;;;;;;;7.72;3.97;;;;;;;;;;4971459;28;20039;-66
2024/02/06 09:45:52;;;;;;;14.43;6.55;;;;;;;;;;4971164;28;20035;-64
2024/02/06 09:48:18;;;;;;;6.90;3.28;;;;;;;;;;4972004;28;20065;-64
2024/02/06 09:50:44;;;;;;;18.30;8.73;;;;;;;;;;4969833;28;20053;-65
2024/02/06 09:53:12;;;;;;;7.63;2.90;;;;;;;;;;4972574;28;20047;-64
2024/02/06 09:55:40;;;;;;;7.30;3.42;;;;;;;;;;4971888;28;20027;-63
2024/02/06 09:58:07;;;;;;;6.45;3.22;;;;;;;;;;4972653;28;20050;-65
2024/02/06 10:00:38;;;;;;;7.95;3.08;;;;;;;;;;4971520;28;20038;-64
2024/02/06 10:03:10;;;;;;;6.20;2.70;;;;;;;;;;4972312;28;20532;-64
2024/02/06 10:05:41;;;;;;;5.80;2.50;;;;;;;;;;4966508;28;20395;-64
2024/02/06 10:08:08;;;;;;;5.60;2.65;;;;;;;;;;4964379;28;20051;-65
2024/02/06 10:10:35;;;;;;;5.85;3.35;;;;;;;;;;4969813;28;20035;-64
2024/02/06 10:13:03;;;;;;;7.88;2.55;;;;;;;;;;4963684;28;20043;-64
2024/02/06 10:15:29;;;;;;;5.25;2.15;;;;;;;;;;4969377;28;20045;-64
2024/02/06 10:17:56;;;;;;;4.60;1.92;;;;;;;;;;4972302;28;20494;-65
2024/02/06 10:20:22;;;;;;;6.97;2.15;;;;;;;;;;4967542;28;20046;-64
2024/02/06 10:22:50;;;;;;;8.02;2.20;;;;;;;;;;4970609;28;20037;-64
2024/02/06 10:25:17;;;;;;;4.63;2.22;;;;;;;;;;4969045;28;20043;-64
2024/02/06 10:27:43;;;;;;;6.85;3.97;;;;;;;;;;4971169;28;20477;-64
2024/02/06 10:30:10;;;;;;;9.27;4.63;;;;;;;;;;4970393;28;20458;-64
2024/02/06 10:32:38;;;;;;;6.20;2.40;;;;;;;;;;4965249;28;20035;-64
2024/02/06 10:35:06;;;;;;;3.83;2.30;;;;;;;;;;4971524;28;20073;-64
2024/02/06 10:37:36;;;;;;;5.05;2.85;;;;;;;;;;4966152;28;20490;-64
2024/02/06 10:40:10;;;;;;;4.57;2.25;;;;;;;;;;4968304;28;20494;-63
2024/02/06 10:42:37;;;;;;;4.90;1.92;;;;;;;;;;4965722;28;20443;-64
2024/02/06 10:45:03;;;;;;;4.85;2.13;;;;;;;;;;4968947;28;20051;-64
2024/02/06 10:47:31;;;;;;;4.25;2.13;;;;;;;;;;4971370;28;20060;-64
2024/02/06 10:50:05;;;;;;;6.03;2.53;;;;;;;;;;4970306;28;20414;-65
2024/02/06 10:52:32;;;;;;;4.97;2.10;;;;;;;;;;4965253;28;20042;-64
2024/02/06 10:54:58;;;;;;;5.25;2.38;;;;;;;;;;4970870;28;20046;-65
2024/02/06 10:57:32;;;;;;;6.30;2.00;;;;;;;;;;4971183;28;20443;-64
2024/02/06 11:00:11;;;;;;;5.40;2.08;;;;;;;;;;4967278;28;20045;-64
2024/02/06 11:02:40;;;;;;;4.95;2.10;;;;;;;;;;4964920;28;20190;-64
2024/02/06 11:05:11;;;;;;;5.40;1.95;;;;;;;;;;4968913;28;20050;-64
2024/02/06 11:07:51;;;;;;;3.85;1.80;;;;;;;;;;4967989;28;20047;-64
2024/02/06 11:10:26;;;;;;;4.63;2.38;;;;;;;;;;4969086;28;20043;-64
2024/02/06 11:13:03;;;;;;;6.22;2.67;;;;;;;;;;4969891;28;20046;-64
2024/02/06 11:15:30;;;;;;;7.78;2.47;;;;;;;;;;4966053;28;20034;-64
2024/02/06 11:17:56;;;;;;;8.35;2.58;;;;;;;;;;4968962;28;20046;-67
2024/02/06 11:20:28;;;;;;;8.55;2.55;;;;;;;;;;4970430;28;20050;-65
2024/02/06 11:22:58;;;;;;;4.18;2.05;;;;;;;;;;4969685;28;20049;-64
2024/02/06 11:25:27;;;;;;;4.85;2.40;;;;;;;;;;4970657;28;20479;-64
2024/02/06 11:27:55;;;;;;;3.17;1.50;;;;;;;;;;4966871;28;20126;-64
2024/02/06 11:30:22;;;;;;;5.03;2.22;;;;;;;;;;4970320;28;20047;-64
2024/02/06 11:33:00;;;;;;;4.15;2.00;;;;;;;;;;4967636;28;20142;-62
2024/02/06 11:35:27;;;;;;;6.03;2.03;;;;;;;;;;4971264;28;20062;-64
2024/02/06 11:37:53;;;;;;;3.20;1.60;;;;;;;;;;4970152;28;20049;-64
2024/02/06 11:40:25;;;;;;;7.53;2.15;;;;;;;;;;4969313;28;20043;-66
2024/02/06 11:43:04;;;;;;;3.83;1.60;;;;;;;;;;4968266;28;20035;-65
2024/02/06 11:45:32;;;;;;;6.00;1.90;;;;;;;;;;4967921;28;20106;-65
2024/02/06 11:48:00;;;;;;;5.50;1.83;;;;;;;;;;4968635;28;20042;-65
2024/02/06 11:50:34;;;;;;;3.15;1.52;;;;;;;;;;4967658;28;20061;-65
2024/02/06 11:53:01;;;;;;;2.28;1.42;;;;;;;;;;4965921;28;20038;-64
2024/02/06 11:55:28;;;;;;;6.47;1.60;;;;;;;;;;4969033;28;20050;-62
2024/02/06 11:57:57;;;;;;;3.78;1.77;;;;;;;;;;4966808;28;20034;-66
2024/02/06 12:00:25;;;;;;;3.25;1.63;;;;;;;;;;4969131;28;20043;-64
2024/02/06 12:02:52;;;;;;;4.05;1.40;;;;;;;;;;4956296;28;20030;-65
2024/02/06 12:05:18;;;;;;;4.88;1.70;;;;;;;;;;4968967;28;20371;-65
2024/02/06 12:07:58;;;;;;;2.97;1.50;;;;;;;;;;4967886;28;20066;-65
2024/02/06 12:10:29;;;;;;;3.28;1.77;;;;;;;;;;4962946;28;20134;-65
2024/02/06 12:13:00;;;;;;;3.90;1.65;;;;;;;;;;4967732;28;20034;-65
2024/02/06 12:15:28;;;;;;;4.18;2.30;;;;;;;;;;4967269;28;20483;-64
2024/02/06 12:17:54;;;;;;;5.30;1.80;;;;;;;;;;4966272;28;20041;-64
2024/02/06 12:20:21;;;;;;;4.07;2.15;;;;;;;;;;4969773;28;20046;-66
2024/02/06 12:23:03;;;;;;;6.78;2.70;;;;;;;;;;4969044;28;20042;-65
2024/02/06 12:25:30;;;;;;;3.63;1.60;;;;;;;;;;4969765;28;20057;-65
2024/02/06 12:27:58;;;;;;;8.18;1.60;;;;;;;;;;4965725;28;20046;-64
2024/02/06 12:30:28;;;;;;;3.78;1.50;;;;;;;;;;4970940;28;20061;-67
2024/02/06 12:32:59;;;;;;;3.85;1.88;;;;;;;;;;4965118;28;20054;-66
2024/02/06 12:35:26;;;;;;;2.85;1.27;;;;;;;;;;4969419;28;20035;-64
2024/02/06 12:37:57;;;;;;;3.47;1.50;;;;;;;;;;4969766;28;20053;-64
2024/02/06 12:40:29;;;;;;;3.53;1.58;;;;;;;;;;4969536;28;20462;-65
2024/02/06 12:42:59;;;;;;;5.93;1.80;;;;;;;;;;4967438;28;20053;-65
2024/02/06 12:45:27;;;;;;;5.70;1.30;;;;;;;;;;4967527;28;20054;-65
2024/02/06 12:47:54;;;;;;;2.17;1.52;;;;;;;;;;4968132;28;20031;-66
2024/02/06 12:50:20;;;;;;;2.92;1.40;;;;;;;;;;4969600;28;20038;-63
2024/02/06 12:52:54;;;;;;;3.42;1.48;;;;;;;;;;4968472;28;20042;-64
2024/02/06 12:55:23;;;;;;;4.20;1.35;;;;;;;;;;4968165;28;20038;-65
2024/02/06 12:57:54;;;;;;;5.30;1.65;;;;;;;;;;4966944;28;20482;-64
2024/02/06 13:00:22;;;;;;;4.88;1.70;;;;;;;;;;4969384;28;20051;-64
2024/02/06 13:03:00;;;;;;;5.22;1.70;;;;;;;;;;4967389;28;20388;-65
2024/02/06 13:05:27;;;;;;;9.38;1.52;;;;;;;;;;4969067;28;20043;-64
2024/02/06 13:08:08;;;;;;;5.20;1.50;;;;;;;;;;4965570;28;20042;-65
2024/02/06 13:10:34;;;;;;;5.47;2.17;;;;;;;;;;4966242;28;20070;-64
2024/02/06 13:13:04;;;;;;;3.80;1.55;;;;;;;;;;4968451;28;20046;-65
2024/02/06 13:15:34;;;;;;;4.85;1.80;;;;;;;;;;4967171;28;20065;-64
2024/02/06 13:18:01;;;;;;;4.90;1.58;;;;;;;;;;4955452;28;20070;-65
2024/02/06 13:20:30;;;;;;;3.65;1.40;;;;;;;;;;4964762;28;20514;-64
2024/02/06 13:23:08;;;;;;;10.65;2.38;;;;;;;;;;4965978;28;20399;-64
2024/02/06 13:25:34;;;;;;;6.68;1.90;;;;;;;;;;4968241;28;20054;-65
2024/02/06 13:28:00;;;;;;;4.78;1.40;;;;;;;;;;4966042;28;20061;-65
2024/02/06 13:30:27;;;;;;;6.32;1.65;;;;;;;;;;4967760;28;20049;-65
2024/02/06 13:32:53;;;;;;;5.53;1.73;;;;;;;;;;4967011;28;20050;-64
2024/02/06 13:35:19;;;;;;;3.28;1.73;;;;;;;;;;4967552;28;20486;-65
2024/02/06 13:37:46;;;;;;;3.65;1.60;;;;;;;;;;4970078;28;20058;-65
2024/02/06 13:40:12;;;;;;;5.75;1.88;;;;;;;;;;4962319;28;20048;-65
2024/02/06 13:42:38;;;;;;;3.45;1.50;;;;;;;;;;4963624;28;20035;-62
2024/02/06 13:45:05;;;;;;;4.35;1.65;;;;;;;;;;4961012;28;20030;-65
2024/02/06 13:47:31;;;;;;;2.88;1.27;;;;;;;;;;4968706;28;20054;-65
2024/02/06 13:49:59;;;;;;;4.50;1.27;;;;;;;;;;4967179;28;20095;-64
2024/02/06 13:52:25;;;;;;;5.22;1.75;;;;;;;;;;4969813;28;20110;-63
2024/02/06 13:54:51;;;;;;;2.95;1.73;;;;;;;;;;4966823;28;20038;-64
2024/02/06 13:57:18;;;;;;;3.13;1.60;;;;;;;;;;4965525;28;20440;-65
2024/02/06 13:59:45;;;;;;;2.25;1.30;;;;;;;;;;4967283;28;20042;-64
2024/02/06 14:02:12;;;;;;;3.40;1.38;;;;;;;;;;4961884;28;20382;-65
2024/02/06 14:04:39;;;;;;;3.78;1.60;;;;;;;;;;4953235;28;20115;-68
2024/02/06 14:07:05;;;;;;;5.65;1.55;;;;;;;;;;4957021;28;21410;-68
2024/02/06 14:09:31;;;;;;;5.53;1.80;;;;;;;;;;4958225;28;20066;-65
2024/02/06 14:11:57;;;;;;;6.03;2.22;;;;;;;;;;4959307;28;20038;-65
2024/02/06 14:14:26;;;;;;;6.07;1.58;;;;;;;;;;4961713;28;20054;-66
2024/02/06 14:16:53;;;;;;;5.20;1.50;;;;;;;;;;4965638;28;20142;-65
2024/02/06 14:19:21;;;;;;;5.53;1.73;;;;;;;;;;4962126;28;20043;-62
2024/02/06 14:21:47;;;;;;;5.80;2.30;;;;;;;;;;4965602;28;20035;-64
2024/02/06 14:24:14;;;;;;;6.00;1.85;;;;;;;;;;4968735;28;20055;-62
2024/02/06 14:26:40;;;;;;;3.00;1.70;;;;;;;;;;4969168;28;20054;-65
2024/02/06 14:29:06;;;;;;;12.45;3.63;;;;;;;;;;4971666;28;20027;-65
2024/02/06 14:31:33;;;;;;;7.05;1.58;;;;;;;;;;4969568;28;20034;-65
2024/02/06 14:33:59;;;;;;;3.65;1.92;;;;;;;;;;4969823;28;20039;-65